createdAt,value
2019-01-25T00:01:54.098Z,7.67
2019-01-25T00:11:57.770Z,6.73
2019-01-25T00:22:01.350Z,6.87
2019-01-25T00:32:04.970Z,4.60
2019-01-25T00:42:08.538Z,5.67
2019-01-25T00:52:12.123Z,5.37
2019-01-25T01:02:15.712Z,5.27
2019-01-25T01:12:19.302Z,4.07
2019-01-25T01:22:22.882Z,5.80
2019-01-25T01:32:26.474Z,6.63
2019-01-25T01:42:30.297Z,4.40
2019-01-25T01:52:33.887Z,5.20
2019-01-25T02:02:37.455Z,3.83
2019-01-25T02:12:41.042Z,5.10
2019-01-25T02:22:44.621Z,4.13
2019-01-25T02:32:48.203Z,3.10
2019-01-25T02:42:51.767Z,2.93
2019-01-25T02:53:03.564Z,2.90
2019-01-25T03:03:00.653Z,5.17
2019-01-25T03:13:04.295Z,4.60
2019-01-25T03:23:07.884Z,3.90
2019-01-25T03:33:11.451Z,3.17
2019-01-25T03:43:15.035Z,5.17
2019-01-25T03:53:18.630Z,5.23
2019-01-25T04:03:22.203Z,4.00
2019-01-25T04:13:25.785Z,4.20
2019-01-25T04:23:29.378Z,5.70
2019-01-25T04:33:32.958Z,4.90
2019-01-25T04:43:36.534Z,3.70
2019-01-25T04:53:40.122Z,5.33
2019-01-25T05:03:43.694Z,7.93
2019-01-25T05:13:47.295Z,6.20
2019-01-25T05:23:50.862Z,4.50
2019-01-25T05:33:55.910Z,3.67
2019-01-25T05:43:59.474Z,4.90
2019-01-25T05:54:03.047Z,6.10
2019-01-25T06:04:06.628Z,5.50
2019-01-25T06:14:10.321Z,3.00
2019-01-25T06:24:13.929Z,3.30
2019-01-25T06:34:17.502Z,2.57
2019-01-25T06:44:21.078Z,3.60
2019-01-25T06:54:24.654Z,6.87
2019-01-25T07:04:28.218Z,9.40
2019-01-25T07:14:31.813Z,5.57
2019-01-25T07:24:35.382Z,6.53
2019-01-25T07:34:38.963Z,6.07
2019-01-25T07:44:42.556Z,3.70
2019-01-25T07:54:46.111Z,3.87
2019-01-25T08:04:49.687Z,3.53
2019-01-25T08:14:53.271Z,7.30
2019-01-25T08:24:56.842Z,7.10
2019-01-25T08:35:00.781Z,6.83
2019-01-25T08:45:04.917Z,11.33
2019-01-25T08:55:08.797Z,7.07
2019-01-25T09:05:13.591Z,5.10
2019-01-25T09:15:19.982Z,6.80
2019-01-25T09:25:23.541Z,5.83
2019-01-25T09:35:27.113Z,8.00
2019-01-25T09:45:30.698Z,8.27
2019-01-25T09:55:34.267Z,7.33
2019-01-25T10:05:37.835Z,5.17
2019-01-25T10:15:41.417Z,5.60
2019-01-25T10:25:44.987Z,8.60
2019-01-25T10:35:48.838Z,7.93
2019-01-25T10:45:52.413Z,5.43
2019-01-25T10:55:55.979Z,3.73
2019-01-25T11:05:59.561Z,8.17
2019-01-25T11:16:03.143Z,10.37
2019-01-25T11:26:06.706Z,7.07
2019-01-25T11:36:10.286Z,13.47
2019-01-25T11:46:14.140Z,12.37
2019-01-25T11:56:17.707Z,12.83
2019-01-25T12:06:21.266Z,13.10
2019-01-25T12:16:24.876Z,12.37
2019-01-25T12:26:28.442Z,13.73
2019-01-25T12:36:32.274Z,13.23
2019-01-25T12:46:35.842Z,13.53
2019-01-25T12:56:39.422Z,12.90
2019-01-25T13:06:43.007Z,14.83
2019-01-25T13:16:46.607Z,12.17
2019-01-25T13:26:50.182Z,16.00
2019-01-25T13:36:57.125Z,17.07
2019-01-25T13:46:59.118Z,19.80
2019-01-25T13:57:02.707Z,19.47
2019-01-25T14:07:06.623Z,20.27
2019-01-25T14:17:10.371Z,17.27
2019-01-25T14:27:13.962Z,19.90
2019-01-25T14:37:17.555Z,19.00
2019-01-25T14:47:21.138Z,22.80
2019-01-25T14:57:25.937Z,23.93
2019-01-25T15:07:29.566Z,26.23
2019-01-25T15:17:33.164Z,25.40
2019-01-25T15:27:36.754Z,24.40
2019-01-25T15:37:40.333Z,26.93
2019-01-25T15:47:43.974Z,23.83
2019-01-25T15:57:47.622Z,23.30
2019-01-25T16:07:51.220Z,22.23
2019-01-25T16:17:55.896Z,22.20
2019-01-25T16:28:03.790Z,20.13
2019-01-25T16:38:08.210Z,16.37
2019-01-25T16:48:11.878Z,21.07
2019-01-25T16:58:15.475Z,21.40
2019-01-25T17:08:20.083Z,17.33
2019-01-25T17:18:23.750Z,20.50
2019-01-25T17:28:27.408Z,19.57
2019-01-25T17:38:31.010Z,18.03
2019-01-25T17:48:34.598Z,18.83
2019-01-25T17:58:39.334Z,21.67
2019-01-25T18:08:42.953Z,21.80
2019-01-25T18:18:46.608Z,20.50
2019-01-25T18:29:05.937Z,22.13
2019-01-25T18:39:20.609Z,20.23
2019-01-25T18:49:24.194Z,20.47
2019-01-25T18:59:27.794Z,19.13
2019-01-25T19:09:31.455Z,19.77
2019-01-25T19:19:35.029Z,19.23
2019-01-25T19:29:38.610Z,19.57
2019-01-25T19:39:42.234Z,20.00
2019-01-25T19:49:45.839Z,19.47
2019-01-25T19:59:49.520Z,18.97
2019-01-25T20:09:53.182Z,20.20
2019-01-25T20:19:56.770Z,18.87
2019-01-25T20:30:00.358Z,19.03
2019-01-25T20:40:04.314Z,21.47
2019-01-25T20:50:10.971Z,20.93
2019-01-25T21:00:20.614Z,20.43
2019-01-25T21:10:24.480Z,20.93
2019-01-25T21:20:34.858Z,20.50
2019-01-25T21:30:38.463Z,22.20
2019-01-25T21:40:42.058Z,21.97
2019-01-25T21:50:46.619Z,20.33
2019-01-25T22:00:50.243Z,21.47
2019-01-25T22:10:55.050Z,18.73
2019-01-25T22:20:58.627Z,20.23
2019-01-25T22:31:02.200Z,20.80
2019-01-25T22:41:05.779Z,19.47
2019-01-25T22:51:09.367Z,16.97
2019-01-25T23:01:25.990Z,17.00
2019-01-25T23:11:29.580Z,15.87
2019-01-25T23:21:33.150Z,16.80
2019-01-25T23:31:37.506Z,15.07
2019-01-25T23:41:41.114Z,13.40
2019-01-25T23:51:44.758Z,12.93
